Watertown, SD (57201)

5:58 AM CST on February 07, 2016 (GMT -0600)
East side of Watertown, SD | | Change Station
CLOSE
Current Station
Personal Weather Station
Location: Watertown, SD
Elevation: 1732 ft
Nearby Weather Stations
Active Advisory: Blizzard Warning

Elev 1732 ft 44.89 °N, 97.09 °W | Updated 5 minutes ago

Clear
Clear
35.2 °F
Feels Like 33 °F
N
3.2
Wind Variable Wind from South

Today
High -- | Low -- °F
--% Chance of Precip.
Yesterday
High -- | Low -- °F
Precip. -- in
Pressure 29.81 in
Visibility 10.0 miles
Clouds Clear
Windchill 33 °F
Dew Point 29 °F
Humidity 79%
Rainfall 0.00 in
Snow Depth Not available.
7:41 AM 5:44 PM
Waning Crescent, 2% visible
METAR KATY 071153Z AUTO 28018KT 10SM CLR 01/M05 A2975 RMK AO2 PK WND 28026/1111 SLP092 T00061050 10028 20000 50008
Pressure 29.81 in
Visibility 10.0 miles
Clouds Clear
Windchill 33 °F
Dew Point 29 °F
Humidity 79%
Rainfall 0.00 in
Snow Depth Not available.
7:41 AM 5:44 PM
Waning Crescent, 2% visible
METAR KATY 071153Z AUTO 28018KT 10SM CLR 01/M05 A2975 RMK AO2 PK WND 28026/1111 SLP092 T00061050 10028 20000 50008

10-Day Weather Forecast

Almanac

Astronomy

Feb. 07, 2016 Rise Set
Actual Time
Civil Twilight
Nautical Twilight
Astronomical Twilight
Moon
Length of Visible Light
Length of Day
Tomorrow will be .
, % of the Moon is Illuminated

Today's Extremes

State Highs State Lows

Community

WunderPhotos

Upload Photos

1,891,182 photos uploaded!

WunderBlog® & News

Nearby

Air Quality

  Air Quality AQ Index Pollutant
Not available.

Snow Depth

Station Depth Elevation

Earthquake Activity

City Distance Mag. Time & Date
Minimum magnitude displayed is 2.5.

Coastal Water Temperatures

Place Temperature

Stations

Nearby Weather Stations

Station Location Temp. Windchill Dew Point Humidity Wind Precip. Elev Updated Type
                   

Watches & Warnings

Blizzard Warning
Issued: 4:05 AM CST Feb. 7, 2016 – National Weather Service

... Blizzard Warning remains in effect from 9 am this morning to
6 am CST Monday...

* expect periodic blizzard conditions later today and persisting
into this evening.

* Winds gusting as high as 55 mph combined with areas of snow will
cause low visibility at times.

* Total snow accumulations of 1 to 2 inches are expected.

* Travel may be very difficult to impossible at times.

Precautionary/preparedness actions...

A Blizzard Warning means severe winter weather conditions are
expected or occurring. Falling and blowing snow with strong winds
and poor visibilities are likely. This will lead to whiteout
conditions... making travel extremely dangerous. Do not travel. If
you must travel... have a winter survival kit with you. If you get
stranded... stay with your vehicle. The latest Road conditions for
the state you are calling from can be obtained by calling 5 1 1.

Tmt